Portada
METAR-TAF:

METAR-TAF

Aeropuertos :

Aeropuerto de Bluefields

Bluefields, Nicaragua

latitud: 12-00N, longitud: 083-46W, altitud: 5 m

Observación

El informe se hizo hace 57 minutos, a las 20:00 UTC
Viento 8 kt del este
Temperatura 31°C
Humedad 75%
Presión 1012 hPa
Visibilidad 10 km o más
Nubes dispersas a una altura de 1800 ft

METAR: MNBL 202000Z 08008KT 9999 SCT018 31/26 Q1012

Hora: 14:57 (20:57 UTC)

Pronóstico

El informe se hizo hace 5 horas y 2 minutos, a las 15:55 UTC
Pronóstico válido del 20 a las 18 UTC al 21 a las 18 UTC
Viento 12 kt del este
Visibilidad 10 km o más
Cielo nuboso a una altura de 1600 ft
Temporalmente
del 20 a las 19 UTC al 21 a las 02 UTC
Nubes dispersas a una altura de 1600 ft

TAF: MNBL 201555Z 2018/2118 08012KT 9999 BKN016 TEMPO 2019/2102 SCT016

Observaciones y pronósticos meteorológicos de más de 4000 aeropuertos (mensajes METAR y TAF).

Los puntos amarillos y rojos representan las estaciones disponibles.

Ponga el ratón en el punto deseado para ver el nombre de la estación.

Haga clic para ver las observaciones y los pronósticos meteorológicos.

Para cambiar el mapa : haga clic en los botones verdes con una cruz de color negro para hacer un zoom, en el botón verde con un guión para alejar o en las flechas verdes para mapas adyacentes.


METAR-TAF: